Terminal Aerodrome Forecast
Issued by NWS Central Illinois

Home | Current Version | Previous Version | Text Only | Print | Product List | Glossary On
Versions: 1 2 3 4 5 6 7 8 9 10 11 12 13 14 15 16 17 18 19 20 21 22 23 24 25 26 27 28 29
000
FTUS43 KILX 191453 AAC
TAFPIA
TAF AMD
KPIA 191453Z 1915/2012 19012G20KT 3SM -SHRA BR VCTS OVC005CB
     FM191800 19014G24KT 5SM -SHRA BR VCTS OVC012CB
     FM200200 20012G20KT 2SM SHRA BR VCTS OVC007CB WS018/21045KT=

USA.gov is the U.S. government's official web portal to all federal, state and local government web resources and services.